createdAt,value
2022-08-24T00:00:38.014Z,99.90
2022-08-24T00:03:05.269Z,99.90
2022-08-24T00:05:32.783Z,99.90
2022-08-24T00:07:59.877Z,99.90
2022-08-24T00:10:27.293Z,99.90
2022-08-24T00:12:55.567Z,99.90
2022-08-24T00:15:22.801Z,99.90
2022-08-24T00:17:50.054Z,99.90
2022-08-24T00:20:17.209Z,99.90
2022-08-24T00:22:44.800Z,99.90
2022-08-24T00:25:13.610Z,99.90
2022-08-24T00:27:42.000Z,99.90
2022-08-24T00:30:12.715Z,99.90
2022-08-24T00:32:39.931Z,99.90
2022-08-24T00:35:09.168Z,99.90
2022-08-24T00:37:37.221Z,99.90
2022-08-24T00:40:13.821Z,99.90
2022-08-24T00:42:42.155Z,99.90
2022-08-24T00:45:17.265Z,99.90
2022-08-24T00:48:05.271Z,99.90
2022-08-24T00:50:47.987Z,99.90
2022-08-24T00:53:39.029Z,99.90
2022-08-24T00:56:15.453Z,99.90
2022-08-24T00:58:57.180Z,99.90
2022-08-24T01:01:28.658Z,99.90
2022-08-24T01:04:00.017Z,99.90
2022-08-24T01:06:27.761Z,99.90
2022-08-24T01:08:57.063Z,99.90
2022-08-24T01:11:33.818Z,99.90
2022-08-24T01:14:05.487Z,99.90
2022-08-24T01:16:51.521Z,99.90
2022-08-24T01:19:31.329Z,99.90
2022-08-24T01:22:33.874Z,99.90
2022-08-24T01:25:01.805Z,99.90
2022-08-24T01:27:29.952Z,99.90
2022-08-24T01:30:02.653Z,99.90
2022-08-24T01:32:31.065Z,99.90
2022-08-24T01:34:59.423Z,99.90
2022-08-24T01:37:27.053Z,99.90
2022-08-24T01:39:59.253Z,99.90
2022-08-24T01:42:27.245Z,99.90
2022-08-24T01:44:54.862Z,99.90
2022-08-24T01:47:22.307Z,99.90
2022-08-24T01:49:50.023Z,99.90
2022-08-24T01:52:23.693Z,99.90
2022-08-24T01:54:52.345Z,99.90
2022-08-24T01:57:20.458Z,99.90
2022-08-24T01:59:50.449Z,99.90
2022-08-24T02:02:29.522Z,99.90
2022-08-24T02:04:57.106Z,99.90
2022-08-24T02:07:24.775Z,99.90
2022-08-24T02:09:53.179Z,99.90
2022-08-24T02:12:21.567Z,99.90
2022-08-24T02:14:49.037Z,99.90
2022-08-24T02:17:18.398Z,99.90
2022-08-24T02:19:47.104Z,99.90
2022-08-24T02:22:14.675Z,99.90
2022-08-24T02:24:42.619Z,99.90
2022-08-24T02:27:10.166Z,99.90
2022-08-24T02:29:38.031Z,99.90
2022-08-24T02:32:07.323Z,99.90
2022-08-24T02:34:34.671Z,99.90
2022-08-24T02:37:01.993Z,99.90
2022-08-24T02:39:29.386Z,99.90
2022-08-24T02:41:56.709Z,99.90
2022-08-24T02:44:24.721Z,99.90
2022-08-24T02:46:52.254Z,99.90
2022-08-24T02:49:21.404Z,99.90
2022-08-24T02:51:48.685Z,99.90
2022-08-24T02:54:18.404Z,99.90
2022-08-24T02:56:47.091Z,99.90
2022-08-24T02:59:16.208Z,99.90
2022-08-24T03:01:44.784Z,99.90
2022-08-24T03:04:12.909Z,99.90
2022-08-24T03:06:42.655Z,99.90
2022-08-24T03:09:10.975Z,99.90
2022-08-24T03:11:38.485Z,99.90
2022-08-24T03:14:06.978Z,99.90
2022-08-24T03:16:38.687Z,99.90
2022-08-24T03:19:06.523Z,99.90
2022-08-24T03:21:33.850Z,99.90
2022-08-24T03:24:01.262Z,99.90
2022-08-24T03:26:28.604Z,99.90
2022-08-24T03:28:56.184Z,99.90
2022-08-24T03:31:26.888Z,99.90
2022-08-24T03:33:54.265Z,99.90
2022-08-24T03:36:23.031Z,99.90
2022-08-24T03:38:50.622Z,99.90
2022-08-24T03:41:17.890Z,99.90
2022-08-24T03:43:51.323Z,99.90
2022-08-24T03:46:28.937Z,99.90
2022-08-24T03:48:59.251Z,99.90
2022-08-24T03:51:28.836Z,99.90
2022-08-24T03:53:59.025Z,99.90
2022-08-24T03:56:28.625Z,99.90
2022-08-24T03:59:00.038Z,99.90
2022-08-24T04:01:28.379Z,99.90
2022-08-24T04:03:56.251Z,99.90
2022-08-24T04:06:24.198Z,99.90
2022-08-24T04:08:53.195Z,99.90
2022-08-24T04:11:26.224Z,99.90
2022-08-24T04:13:57.345Z,99.90
2022-08-24T04:16:26.668Z,99.90
2022-08-24T04:18:54.128Z,99.90
2022-08-24T04:21:31.528Z,99.90
2022-08-24T04:24:05.590Z,99.90
2022-08-24T04:26:45.708Z,99.90
2022-08-24T04:29:17.340Z,99.90
2022-08-24T04:31:45.991Z,99.90
2022-08-24T04:34:16.107Z,99.90
2022-08-24T04:36:45.695Z,99.90
2022-08-24T04:39:14.131Z,99.90
2022-08-24T04:41:43.871Z,99.90
2022-08-24T04:44:13.175Z,99.90
2022-08-24T04:46:40.546Z,99.90
2022-08-24T04:49:09.188Z,99.90
2022-08-24T04:51:37.674Z,99.90
2022-08-24T04:54:06.277Z,99.90
2022-08-24T04:56:34.278Z,99.90
2022-08-24T04:59:03.940Z,99.90
2022-08-24T05:01:32.895Z,99.90
2022-08-24T05:04:01.242Z,99.90
2022-08-24T05:06:32.646Z,99.90
2022-08-24T05:09:01.686Z,99.90
2022-08-24T05:11:29.217Z,99.90
2022-08-24T05:13:58.562Z,99.90
2022-08-24T05:16:27.841Z,99.90
2022-08-24T05:18:56.995Z,99.90
2022-08-24T05:21:25.298Z,99.90
2022-08-24T05:23:52.542Z,99.90
2022-08-24T05:26:25.097Z,99.90
2022-08-24T05:29:02.322Z,99.90
2022-08-24T05:31:34.311Z,99.90
2022-08-24T05:34:02.987Z,99.90
2022-08-24T05:36:39.439Z,99.90
2022-08-24T05:39:14.642Z,99.90
2022-08-24T05:41:45.709Z,99.90
2022-08-24T05:44:17.058Z,99.90
2022-08-24T05:46:45.219Z,99.90
2022-08-24T05:49:13.876Z,99.90
2022-08-24T05:51:42.813Z,99.90
2022-08-24T05:54:13.654Z,99.90
2022-08-24T05:56:41.557Z,99.90
2022-08-24T05:59:09.072Z,99.90
2022-08-24T06:01:36.880Z,99.90
2022-08-24T06:04:05.480Z,99.90
2022-08-24T06:06:32.673Z,99.90
2022-08-24T06:09:01.647Z,99.90
2022-08-24T06:11:39.572Z,99.90
2022-08-24T06:14:14.041Z,99.90
2022-08-24T06:16:45.407Z,99.90
2022-08-24T06:19:15.413Z,99.90
2022-08-24T06:21:43.990Z,99.90
2022-08-24T06:24:12.166Z,99.90
2022-08-24T06:26:57.986Z,99.90
2022-08-24T06:29:25.207Z,99.90
2022-08-24T06:31:54.664Z,99.90
2022-08-24T06:34:27.030Z,99.90
2022-08-24T06:36:54.468Z,99.90
2022-08-24T06:39:21.674Z,99.90
2022-08-24T06:41:49.940Z,99.90
2022-08-24T06:44:17.203Z,99.90
2022-08-24T06:46:45.776Z,99.90
2022-08-24T06:49:14.728Z,99.90
2022-08-24T06:51:41.932Z,99.90
2022-08-24T06:54:09.069Z,99.90
2022-08-24T06:56:38.601Z,99.90
2022-08-24T06:59:07.308Z,99.90
2022-08-24T07:01:34.480Z,99.90
2022-08-24T07:04:01.819Z,99.90
2022-08-24T07:06:29.011Z,99.90
2022-08-24T07:08:57.443Z,99.90
2022-08-24T07:11:25.618Z,99.90
2022-08-24T07:13:52.829Z,99.80
2022-08-24T07:16:21.426Z,98.40
2022-08-24T07:18:50.990Z,98.50
2022-08-24T07:21:20.055Z,99.10
2022-08-24T07:23:49.002Z,98.30
2022-08-24T07:26:21.485Z,99.20
2022-08-24T07:28:50.981Z,96.40
2022-08-24T07:31:18.697Z,96.60
2022-08-24T07:33:45.948Z,94.90
2022-08-24T07:36:17.040Z,95.00
2022-08-24T07:38:53.410Z,95.00
2022-08-24T07:44:15.850Z,93.30
2022-08-24T07:46:43.447Z,93.50
2022-08-24T07:49:29.214Z,93.10
2022-08-24T07:51:59.482Z,93.50
2022-08-24T07:54:29.627Z,92.30
2022-08-24T07:56:59.425Z,92.10
2022-08-24T07:59:27.917Z,91.60
2022-08-24T08:01:56.794Z,91.60
2022-08-24T08:04:28.271Z,90.80
2022-08-24T08:06:57.173Z,90.60
2022-08-24T08:09:26.952Z,89.00
2022-08-24T08:11:55.561Z,88.60
2022-08-24T08:14:22.762Z,88.40
2022-08-24T08:16:50.146Z,89.00
2022-08-24T08:19:17.688Z,87.20
2022-08-24T08:22:09.300Z,86.80
2022-08-24T08:24:39.753Z,86.10
2022-08-24T08:27:07.111Z,85.50
2022-08-24T08:29:35.070Z,86.00
2022-08-24T08:32:02.395Z,85.50
2022-08-24T08:34:31.522Z,85.80
2022-08-24T08:36:59.879Z,83.20
2022-08-24T08:39:29.769Z,83.00
2022-08-24T08:42:30.943Z,82.20
2022-08-24T08:45:27.205Z,81.70
2022-08-24T08:48:34.505Z,81.90
2022-08-24T08:51:39.043Z,81.80
2022-08-24T08:54:30.967Z,81.60
2022-08-24T08:57:01.024Z,81.80
2022-08-24T09:00:15.814Z,81.70
2022-08-24T09:02:55.829Z,81.90
2022-08-24T09:05:47.544Z,81.30
2022-08-24T09:08:33.215Z,80.70
2022-08-24T09:11:15.637Z,80.90
2022-08-24T09:14:22.106Z,80.90
2022-08-24T09:17:02.748Z,80.90
2022-08-24T09:20:18.164Z,80.30
2022-08-24T09:22:48.362Z,80.00
2022-08-24T09:25:26.748Z,80.80
2022-08-24T09:28:15.089Z,80.80
2022-08-24T09:31:00.817Z,80.30
2022-08-24T09:34:17.738Z,78.90
2022-08-24T09:36:57.417Z,79.40
2022-08-24T09:39:42.560Z,77.60
2022-08-24T09:42:47.724Z,78.40
2022-08-24T09:45:40.450Z,78.40
2022-08-24T09:48:36.651Z,79.50
2022-08-24T09:51:22.667Z,78.00
2022-08-24T09:54:14.885Z,78.70
2022-08-24T09:57:19.912Z,78.10
2022-08-24T10:00:30.455Z,78.10
2022-08-24T10:03:12.831Z,77.70
2022-08-24T10:06:01.360Z,77.10
2022-08-24T10:08:40.280Z,76.30
2022-08-24T10:11:07.562Z,76.60
2022-08-24T10:13:55.958Z,75.60
2022-08-24T10:16:59.627Z,72.90
2022-08-24T10:20:00.865Z,73.80
2022-08-24T10:22:36.968Z,73.90
2022-08-24T10:25:41.759Z,74.70
2022-08-24T10:28:37.552Z,75.00
2022-08-24T10:31:12.465Z,75.10
2022-08-24T10:34:05.273Z,74.60
2022-08-24T10:36:47.245Z,73.40
2022-08-24T10:39:42.276Z,73.90
2022-08-24T10:43:08.204Z,73.60
2022-08-24T10:45:54.041Z,73.30
2022-08-24T10:48:30.298Z,73.20
2022-08-24T10:51:31.625Z,72.20
2022-08-24T10:53:59.060Z,72.20
2022-08-24T10:57:02.195Z,72.10
2022-08-24T10:59:41.075Z,72.10
2022-08-24T11:02:27.886Z,72.00
2022-08-24T11:05:08.692Z,71.30
2022-08-24T11:07:37.661Z,71.30
2022-08-24T11:10:10.285Z,70.90
2022-08-24T11:12:43.901Z,70.70
2022-08-24T11:15:28.472Z,68.90
2022-08-24T11:18:02.935Z,68.80
2022-08-24T11:20:41.284Z,67.60
2022-08-24T11:23:19.109Z,67.20
2022-08-24T11:26:05.751Z,67.20
2022-08-24T11:28:45.835Z,66.70
2022-08-24T11:31:27.426Z,66.40
2022-08-24T11:34:34.681Z,65.90
2022-08-24T11:37:03.622Z,65.60
2022-08-24T11:39:38.511Z,66.50
2022-08-24T11:42:39.019Z,66.30
2022-08-24T11:45:52.500Z,66.40
2022-08-24T11:49:10.286Z,66.60
2022-08-24T11:51:49.239Z,67.00
2022-08-24T11:54:38.683Z,67.10
2022-08-24T11:57:18.252Z,67.20
2022-08-24T12:00:02.091Z,67.40
2022-08-24T12:03:02.694Z,67.20
2022-08-24T12:05:43.548Z,68.00
2022-08-24T12:08:33.743Z,68.50
2022-08-24T12:11:23.800Z,68.40
2022-08-24T12:14:15.014Z,67.70
2022-08-24T12:17:24.376Z,67.90
2022-08-24T12:20:18.970Z,67.00
2022-08-24T12:22:46.637Z,67.30
2022-08-24T12:25:42.803Z,67.50
2022-08-24T12:28:12.669Z,67.40
2022-08-24T12:30:40.143Z,66.60
2022-08-24T12:33:13.480Z,66.50
2022-08-24T12:35:52.945Z,67.00
2022-08-24T12:38:37.008Z,67.40
2022-08-24T12:41:23.649Z,67.60
2022-08-24T12:44:14.842Z,68.00
2022-08-24T12:46:45.406Z,67.60
2022-08-24T12:49:27.778Z,67.60
2022-08-24T12:52:14.215Z,66.90
2022-08-24T12:55:24.886Z,66.20
2022-08-24T12:58:53.805Z,65.00
2022-08-24T13:01:29.476Z,65.60
2022-08-24T13:04:44.621Z,65.80
2022-08-24T13:07:40.546Z,65.60
2022-08-24T13:10:23.770Z,65.30
2022-08-24T13:13:21.189Z,65.60
2022-08-24T13:15:48.525Z,65.30
2022-08-24T13:18:15.867Z,65.20
2022-08-24T13:21:03.127Z,65.10
2022-08-24T13:23:30.453Z,64.70
2022-08-24T13:26:27.934Z,64.60
2022-08-24T13:29:08.495Z,64.80
2022-08-24T13:31:43.551Z,64.90
2022-08-24T13:34:10.780Z,64.80
2022-08-24T13:36:54.743Z,64.80
2022-08-24T13:39:40.132Z,64.90
2022-08-24T13:42:23.455Z,65.20
2022-08-24T13:45:05.898Z,65.10
2022-08-24T13:47:54.483Z,65.20
2022-08-24T13:51:03.250Z,65.20
2022-08-24T13:54:45.747Z,65.30
2022-08-24T13:57:44.337Z,65.00
2022-08-24T14:00:39.982Z,65.20
2022-08-24T14:03:22.218Z,65.80
2022-08-24T14:05:57.475Z,66.00
2022-08-24T14:09:18.470Z,66.40
2022-08-24T14:12:32.452Z,66.90
2022-08-24T14:15:07.695Z,67.00
2022-08-24T14:18:04.383Z,66.90
2022-08-24T14:20:58.442Z,66.50
2022-08-24T14:24:02.097Z,66.80
2022-08-24T14:26:40.928Z,66.60
2022-08-24T14:29:20.282Z,66.70
2022-08-24T14:31:58.608Z,66.70
2022-08-24T14:35:33.555Z,67.10
2022-08-24T14:38:16.219Z,67.20
2022-08-24T14:41:18.021Z,67.10
2022-08-24T14:44:08.027Z,66.50
2022-08-24T14:47:15.819Z,66.20
2022-08-24T14:50:44.632Z,66.30
2022-08-24T14:53:52.358Z,66.10
2022-08-24T14:56:57.822Z,66.10
2022-08-24T15:04:38.845Z,65.50
2022-08-24T15:07:39.154Z,64.60
2022-08-24T15:10:30.442Z,64.80
2022-08-24T15:13:07.815Z,64.20
2022-08-24T15:16:32.144Z,63.30
2022-08-24T15:20:08.178Z,62.60
2022-08-24T15:22:49.307Z,62.30
2022-08-24T15:26:01.627Z,62.30
2022-08-24T15:28:33.311Z,62.30
2022-08-24T15:31:07.937Z,62.10
2022-08-24T15:34:02.645Z,62.40
2022-08-24T15:36:34.074Z,62.90
2022-08-24T15:39:05.942Z,63.20
2022-08-24T15:41:39.191Z,63.30
2022-08-24T15:44:21.356Z,63.30
2022-08-24T15:46:57.000Z,63.40
2022-08-24T15:49:37.007Z,63.50
2022-08-24T15:52:10.574Z,63.80
2022-08-24T15:54:59.621Z,64.20
2022-08-24T15:57:35.220Z,63.90
2022-08-24T16:00:43.873Z,63.50
2022-08-24T16:03:48.692Z,63.40
2022-08-24T16:06:45.378Z,63.80
2022-08-24T16:09:21.546Z,64.40
2022-08-24T16:12:21.322Z,64.90
2022-08-24T16:15:10.880Z,65.10
2022-08-24T16:17:51.469Z,65.40
2022-08-24T16:20:37.611Z,65.80
2022-08-24T16:23:22.030Z,66.70
2022-08-24T16:25:51.302Z,67.30
2022-08-24T16:28:21.832Z,67.80
2022-08-24T16:31:07.683Z,68.10
2022-08-24T16:33:47.531Z,68.50
2022-08-24T16:36:20.490Z,68.80
2022-08-24T16:38:51.738Z,69.10
2022-08-24T16:41:25.897Z,69.40
2022-08-24T16:43:54.343Z,69.70
2022-08-24T16:46:23.850Z,69.30
2022-08-24T16:48:54.375Z,68.90
2022-08-24T16:51:24.674Z,68.60
2022-08-24T16:53:54.099Z,68.50
2022-08-24T16:56:22.693Z,68.40
2022-08-24T16:58:51.018Z,68.00
2022-08-24T17:01:20.131Z,67.60
2022-08-24T17:03:47.539Z,67.70
2022-08-24T17:06:18.973Z,67.80
2022-08-24T17:08:47.827Z,67.70
2022-08-24T17:11:19.429Z,67.50
2022-08-24T17:13:50.485Z,67.60
2022-08-24T17:16:23.002Z,67.50
2022-08-24T17:18:51.531Z,67.50
2022-08-24T17:21:21.059Z,67.20
2022-08-24T17:23:48.523Z,66.90
2022-08-24T17:26:20.775Z,67.10
2022-08-24T17:28:54.498Z,67.20
2022-08-24T17:31:26.203Z,67.40
2022-08-24T17:33:56.552Z,67.50
2022-08-24T17:36:26.017Z,67.50
2022-08-24T17:39:02.211Z,68.10
2022-08-24T17:41:31.988Z,68.20
2022-08-24T17:44:01.196Z,68.40
2022-08-24T17:46:28.822Z,68.40
2022-08-24T17:49:00.638Z,68.60
2022-08-24T17:51:30.445Z,68.80
2022-08-24T17:53:59.031Z,69.00
2022-08-24T17:56:32.326Z,69.30
2022-08-24T17:59:20.245Z,69.60
2022-08-24T18:01:51.005Z,69.90
2022-08-24T18:04:22.472Z,70.20
2022-08-24T18:06:51.745Z,70.40
2022-08-24T18:09:29.183Z,70.80
2022-08-24T18:11:59.671Z,71.30
2022-08-24T18:14:29.689Z,70.90
2022-08-24T18:17:01.203Z,71.20
2022-08-24T18:19:29.668Z,71.30
2022-08-24T18:22:02.013Z,71.40
2022-08-24T18:24:32.707Z,71.60
2022-08-24T18:27:10.316Z,72.60
2022-08-24T18:29:42.643Z,72.10
2022-08-24T18:32:11.941Z,72.30
2022-08-24T18:34:40.311Z,72.60
2022-08-24T18:37:11.051Z,73.60
2022-08-24T18:39:38.616Z,73.10
2022-08-24T18:45:51.876Z,73.60
2022-08-24T18:48:19.893Z,73.80
2022-08-24T18:50:48.899Z,74.00
2022-08-24T18:53:18.517Z,74.10
2022-08-24T18:55:48.051Z,74.60
2022-08-24T18:58:15.901Z,74.70
2022-08-24T19:00:43.723Z,75.00
2022-08-24T19:03:18.830Z,75.30
2022-08-24T19:05:46.901Z,75.50
2022-08-24T19:08:14.787Z,76.00
2022-08-24T19:10:45.823Z,76.70
2022-08-24T19:13:16.154Z,76.50
2022-08-24T19:15:47.068Z,76.40
2022-08-24T19:18:16.958Z,77.30
2022-08-24T19:20:52.278Z,77.60
2022-08-24T19:23:36.214Z,77.80
2022-08-24T19:26:05.479Z,78.40
2022-08-24T19:28:34.175Z,79.00
2022-08-24T19:31:07.718Z,80.20
2022-08-24T19:33:41.974Z,80.90
2022-08-24T19:36:10.063Z,83.30
2022-08-24T19:38:42.156Z,83.70
2022-08-24T19:41:12.818Z,83.10
2022-08-24T19:44:04.593Z,82.50
2022-08-24T19:46:33.425Z,82.10
2022-08-24T19:49:01.060Z,83.10
2022-08-24T19:51:28.722Z,83.10
2022-08-24T19:54:00.123Z,83.80
2022-08-24T19:56:28.543Z,84.50
2022-08-24T19:59:02.921Z,85.10
2022-08-24T20:01:37.650Z,87.10
2022-08-24T20:04:07.364Z,86.60
2022-08-24T20:06:40.763Z,87.80
2022-08-24T20:09:09.136Z,88.60
2022-08-24T20:11:39.367Z,89.20
2022-08-24T20:14:07.949Z,89.00
2022-08-24T20:16:44.985Z,89.20
2022-08-24T20:19:12.710Z,89.30
2022-08-24T20:21:40.191Z,89.50
2022-08-24T20:24:08.762Z,88.30
2022-08-24T20:26:43.900Z,90.60
2022-08-24T20:29:13.369Z,90.40
2022-08-24T20:31:41.324Z,91.20
2022-08-24T20:34:08.693Z,91.70
2022-08-24T20:36:41.231Z,91.60
2022-08-24T20:39:13.311Z,92.10
2022-08-24T20:41:40.742Z,92.70
2022-08-24T20:44:11.870Z,92.90
2022-08-24T20:46:41.049Z,93.40
2022-08-24T20:49:17.035Z,93.60
2022-08-24T20:51:46.814Z,93.70
2022-08-24T20:54:14.913Z,92.40
2022-08-24T20:56:44.937Z,93.70
2022-08-24T20:59:15.264Z,93.20
2022-08-24T21:01:42.927Z,94.00
2022-08-24T21:04:13.479Z,94.00
2022-08-24T21:06:46.993Z,93.40
2022-08-24T21:09:18.359Z,94.70
2022-08-24T21:11:46.375Z,94.80
2022-08-24T21:14:13.685Z,94.80
2022-08-24T21:16:44.467Z,94.50
2022-08-24T21:19:17.690Z,95.40
2022-08-24T21:21:47.290Z,95.80
2022-08-24T21:24:15.694Z,96.10
2022-08-24T21:26:43.389Z,95.60
2022-08-24T21:29:13.686Z,95.60
2022-08-24T21:31:42.524Z,96.20
2022-08-24T21:34:28.294Z,96.30
2022-08-24T21:36:55.740Z,96.30
2022-08-24T21:39:23.185Z,96.40
2022-08-24T21:41:50.431Z,96.50
2022-08-24T21:44:17.771Z,96.60
2022-08-24T21:46:45.456Z,96.90
2022-08-24T21:49:12.961Z,96.50
2022-08-24T21:51:40.509Z,96.50
2022-08-24T21:54:08.422Z,96.30
2022-08-24T21:56:35.819Z,96.30
2022-08-24T21:59:03.812Z,96.40
2022-08-24T22:01:31.317Z,96.90
2022-08-24T22:03:59.006Z,96.90
2022-08-24T22:06:31.037Z,97.10
2022-08-24T22:09:00.338Z,97.20
2022-08-24T22:11:29.082Z,97.30
2022-08-24T22:13:57.395Z,97.30
2022-08-24T22:16:26.143Z,97.10
2022-08-24T22:18:54.115Z,96.80
2022-08-24T22:21:30.579Z,97.40
2022-08-24T22:23:59.667Z,97.10
2022-08-24T22:26:29.843Z,97.00
2022-08-24T22:28:57.749Z,97.60
2022-08-24T22:31:30.719Z,97.90
2022-08-24T22:34:02.377Z,97.60
2022-08-24T22:36:30.003Z,97.60
2022-08-24T22:38:59.578Z,97.90
2022-08-24T22:41:28.583Z,97.50
2022-08-24T22:44:16.894Z,97.70
2022-08-24T22:46:45.504Z,97.80
2022-08-24T22:49:14.365Z,97.80
2022-08-24T22:51:42.458Z,97.80
2022-08-24T22:54:11.617Z,97.80
2022-08-24T22:56:46.954Z,97.60
2022-08-24T22:59:24.195Z,97.50
2022-08-24T23:01:55.241Z,97.80
2022-08-24T23:04:28.909Z,97.60
2022-08-24T23:06:57.320Z,96.90
2022-08-24T23:09:24.919Z,96.70
2022-08-24T23:11:54.969Z,97.20
2022-08-24T23:14:25.458Z,97.50
2022-08-24T23:16:53.469Z,96.90
2022-08-24T23:19:43.903Z,97.30
2022-08-24T23:22:14.871Z,97.40
2022-08-24T23:24:43.821Z,97.50
2022-08-24T23:27:17.007Z,96.80
2022-08-24T23:29:46.110Z,96.30
2022-08-24T23:32:17.681Z,96.90
2022-08-24T23:34:49.771Z,96.50
2022-08-24T23:37:18.683Z,96.00
2022-08-24T23:39:46.376Z,96.00
2022-08-24T23:42:13.913Z,96.50
2022-08-24T23:44:41.265Z,96.40
2022-08-24T23:47:09.337Z,96.20
2022-08-24T23:49:36.938Z,96.30
2022-08-24T23:52:04.655Z,96.40
2022-08-24T23:54:32.145Z,96.00
2022-08-24T23:56:59.492Z,96.50
2022-08-24T23:59:29.613Z,96.80
